Time;durP1;ratioP1;P1;durP2;ratioP2;P2;SDS_P1;SDS_P2;PMS_P1;PMS_P2;Temp;Humidity;BMP_temperature;BMP_pressure;BME280_temperature;BME280_humidity;BME280_pressure;Samples;Min_cycle;Max_cycle;Signal;HPM_P1;HPM_P2
2022/05/17 00:00:34;;;;;;;20.77;15.00;;;;;;;14.39;59.79;99128.94;2289540;77;20902;-79
2022/05/17 00:03:35;;;;;;;12.10;8.30;;;;;;;13.82;57.43;99121.36;2287693;78;21396;-78
2022/05/17 00:06:35;;;;;;;15.80;5.33;;;;;;;13.06;57.54;99127.52;2287984;78;21026;-78
2022/05/17 00:09:35;;;;;;;11.43;4.62;;;;;;;12.47;58.21;99130.53;2288851;77;20930;-78
2022/05/17 00:12:36;;;;;;;11.10;4.72;;;;;;;12.06;59.05;99125.75;2288990;77;20930;-78
2022/05/17 00:15:36;;;;;;;8.90;4.80;;;;;;;11.75;59.72;99121.01;2288435;78;20930;-78
2022/05/17 00:18:36;;;;;;;11.40;4.50;;;;;;;11.52;60.37;99121.16;2289062;77;20997;-78
2022/05/17 00:21:37;;;;;;;9.40;3.90;;;;;;;11.36;60.86;99117.48;2287664;77;20934;-78
2022/05/17 00:24:37;;;;;;;9.70;4.37;;;;;;;11.23;61.18;99112.48;2287859;78;20988;-78
2022/05/17 00:27:38;;;;;;;8.43;4.33;;;;;;;11.15;61.24;99110.20;2287785;77;21317;-78
2022/05/17 00:30:38;;;;;;;9.37;4.33;;;;;;;11.10;61.31;99099.69;2287534;77;20989;-78
2022/05/17 00:33:38;;;;;;;6.23;3.90;;;;;;;11.07;61.42;99100.08;2287869;77;21056;-78
2022/05/17 00:36:40;;;;;;;5.93;4.20;;;;;;;11.05;61.28;99103.09;2289616;77;20906;-78
2022/05/17 00:39:39;;;;;;;6.37;3.90;;;;;;;10.97;61.56;99098.19;2289271;77;20957;-78
2022/05/17 00:42:40;;;;;;;7.73;3.90;;;;;;;10.85;61.87;99098.47;2284767;76;20958;-81
2022/05/17 00:45:40;;;;;;;120.70;14.30;;;;;;;10.76;62.18;99102.24;2262335;78;21286;-78
2022/05/17 00:48:40;;;;;;;12.80;8.93;;;;;;;11.55;63.06;99098.98;2261982;78;20965;-78
2022/05/17 00:51:41;;;;;;;7.80;4.67;;;;;;;11.86;60.74;99082.80;2261944;78;20918;-77
2022/05/17 00:54:41;;;;;;;7.73;3.77;;;;;;;11.62;58.98;99079.89;2262213;78;21038;-77
2022/05/17 00:57:42;;;;;;;7.10;3.63;;;;;;;11.43;59.15;99081.41;2261860;78;21285;-79
2022/05/17 01:00:42;;;;;;;9.60;3.83;;;;;;;11.24;59.77;99082.89;2262457;78;20903;-78
2022/05/17 01:03:42;;;;;;;5.87;3.07;;;;;;;11.03;60.20;99081.30;2261969;78;21318;-78
2022/05/17 01:06:43;;;;;;;5.47;3.07;;;;;;;10.87;60.86;99085.86;2261443;78;20961;-78
2022/05/17 01:09:43;;;;;;;9.63;3.30;;;;;;;10.73;60.08;99084.34;2262039;78;20945;-77
2022/05/17 01:12:44;;;;;;;8.23;3.67;;;;;;;10.69;60.36;99087.77;2261846;78;21282;-77
2022/05/17 01:15:44;;;;;;;16.60;8.67;;;;;;;10.70;60.94;99093.02;2261976;78;20968;-77
2022/05/17 01:18:44;;;;;;;6.47;4.40;;;;;;;10.70;60.76;99093.02;2262136;78;20917;-77
2022/05/17 01:21:45;;;;;;;8.80;4.00;;;;;;;10.67;61.75;99092.97;2262020;78;21318;-78
2022/05/17 01:24:45;;;;;;;14.27;4.77;;;;;;;10.57;62.26;99090.19;2261921;78;20906;-79
2022/05/17 01:27:46;;;;;;;8.00;5.40;;;;;;;10.48;62.39;99085.70;2262249;79;20981;-78
2022/05/17 01:30:46;;;;;;;9.50;5.07;;;;;;;10.85;62.17;99082.80;2262108;78;21313;-78
2022/05/17 01:33:46;;;;;;;19.60;5.40;;;;;;;10.76;61.57;99088.31;2261741;78;20961;-78
2022/05/17 01:36:47;;;;;;;46.13;6.53;;;;;;;10.60;62.02;99083.28;2261684;79;21000;-77
2022/05/17 01:39:47;;;;;;;14.03;3.80;;;;;;;10.44;62.08;99081.29;2261733;79;21321;-77
2022/05/17 01:42:48;;;;;;;7.00;3.60;;;;;;;10.34;62.15;99081.53;2265360;78;20973;-79
2022/05/17 01:45:48;;;;;;;5.23;3.17;;;;;;;10.31;62.21;99079.30;2286538;78;20923;-79
2022/05/17 01:48:49;;;;;;;280.93;183.40;;;;;;;10.16;62.59;99079.46;2287205;78;21373;-80
2022/05/17 01:51:49;;;;;;;75.17;52.07;;;;;;;11.43;65.47;99074.88;2287443;78;20891;-80
2022/05/17 01:54:49;;;;;;;16.00;11.30;;;;;;;13.53;61.22;99069.23;2286563;78;20922;-79
2022/05/17 01:57:50;;;;;;;9.10;6.40;;;;;;;13.16;57.04;99072.97;2286769;78;20919;-79
2022/05/17 02:00:52;;;;;;;7.03;4.40;;;;;;;12.35;57.00;99075.45;2264841;78;20997;-79
2022/05/17 02:03:52;;;;;;;6.73;3.87;;;;;;;11.66;57.81;99078.64;2286284;78;21401;-79
2022/05/17 02:06:53;;;;;;;8.87;3.67;;;;;;;11.14;58.77;99079.70;2285880;78;21012;-78
2022/05/17 02:09:53;;;;;;;5.33;3.30;;;;;;;10.79;59.52;99077.91;2285839;78;21329;-78
2022/05/17 02:12:53;;;;;;;6.33;3.10;;;;;;;10.46;60.11;99079.58;2286191;78;20955;-78
2022/05/17 02:15:54;;;;;;;8.03;3.20;;;;;;;10.17;60.82;99078.61;2286123;78;20914;-78
2022/05/17 02:18:54;;;;;;;6.13;3.27;;;;;;;9.95;61.34;99079.09;2286003;78;20919;-78
2022/05/17 02:21:55;;;;;;;5.90;3.37;;;;;;;9.78;61.96;99079.20;2286461;78;20958;-79
2022/05/17 02:24:55;;;;;;;7.53;3.20;;;;;;;9.63;62.55;99075.88;2286082;78;21376;-80
2022/05/17 02:27:56;;;;;;;22.37;5.93;;;;;;;9.49;62.76;99078.61;2286793;78;20915;-80
2022/05/17 02:30:56;;;;;;;19.83;4.47;;;;;;;9.48;63.71;99069.04;2286522;78;20951;-80
2022/05/17 02:33:57;;;;;;;5.07;3.33;;;;;;;9.52;63.50;99073.03;2286087;78;20933;-80
2022/05/17 02:36:57;;;;;;;6.73;5.23;;;;;;;9.42;63.62;99074.13;2286235;78;21013;-81
2022/05/17 02:39:58;;;;;;;4.60;3.37;;;;;;;9.32;63.93;99064.37;2286262;78;20973;-79
2022/05/17 02:42:58;;;;;;;28.07;5.47;;;;;;;9.24;64.35;99068.12;2286542;78;21011;-82
2022/05/17 02:45:59;;;;;;;233.23;16.47;;;;;;;9.18;64.64;99066.27;2290021;77;20922;-80
2022/05/17 02:48:59;;;;;;;11.50;7.33;;;;;;;9.19;64.80;99061.94;2289597;77;20918;-79
2022/05/17 02:52:00;;;;;;;50.20;32.43;;;;;;;9.21;65.00;99059.82;2289514;78;20946;-80
2022/05/17 02:55:00;;;;;;;8.70;5.23;;;;;;;9.22;65.29;99065.91;2289835;78;20934;-79
2022/05/17 02:58:01;;;;;;;5.00;3.60;;;;;;;9.20;65.32;99063.70;2289555;78;21282;-79
2022/05/17 03:01:01;;;;;;;115.67;10.70;;;;;;;9.18;65.64;99061.48;2289983;78;20942;-79
2022/05/17 03:04:02;;;;;;;59.03;5.67;;;;;;;9.17;65.60;99052.80;2289555;78;20946;-77
2022/05/17 03:07:02;;;;;;;3.47;2.80;;;;;;;9.19;65.80;99059.34;2289117;77;21029;-80
2022/05/17 03:10:02;;;;;;;4.00;3.10;;;;;;;9.21;65.91;99063.73;2289627;77;20902;-79
2022/05/17 03:13:03;;;;;;;6.93;2.87;;;;;;;9.19;66.02;99063.24;2289468;77;20993;-79
2022/05/17 03:16:03;;;;;;;5.73;3.00;;;;;;;9.20;66.35;99068.48;2289730;77;20917;-80
2022/05/17 03:19:04;;;;;;;3.80;2.80;;;;;;;9.23;66.61;99068.97;2289416;77;20965;-79
2022/05/17 03:22:04;;;;;;;7.10;3.40;;;;;;;9.27;66.77;99073.39;2289477;77;20953;-79
2022/05/17 03:25:04;;;;;;;4.73;2.93;;;;;;;9.36;66.78;99072.28;2289703;77;20997;-81
2022/05/17 03:28:05;;;;;;;5.27;3.00;;;;;;;9.42;66.57;99069.80;2288911;78;21345;-80
2022/05/17 03:31:05;;;;;;;9.57;2.80;;;;;;;9.48;66.44;99067.31;2287157;78;20973;-79
2022/05/17 03:34:06;;;;;;;8.37;3.03;;;;;;;9.51;66.56;99056.95;2286544;78;20918;-79
2022/05/17 03:37:06;;;;;;;8.27;3.27;;;;;;;9.56;66.50;99057.95;2288153;78;20989;-78
2022/05/17 03:40:09;;;;;;;25.20;4.07;;;;;;;9.67;66.48;99062.48;2288957;78;20930;-78
2022/05/17 03:43:07;;;;;;;8.23;3.00;;;;;;;9.78;66.36;99069.66;2287734;78;21333;-80
2022/05/17 03:46:07;;;;;;;4.50;2.97;;;;;;;9.88;66.00;99065.06;2286213;77;20978;-78
2022/05/17 03:49:08;;;;;;;256.33;13.70;;;;;;;9.92;65.78;99064.69;2284770;77;20945;-78
2022/05/17 03:52:08;;;;;;;8.87;3.23;;;;;;;10.03;66.43;99066.19;2284132;78;21576;-78
2022/05/17 03:55:08;;;;;;;5.70;2.80;;;;;;;10.16;65.79;99068.15;2284767;77;21173;-78
2022/05/17 03:58:09;;;;;;;3.90;2.90;;;;;;;10.22;65.78;99080.02;2284746;77;20929;-77
2022/05/17 04:01:10;;;;;;;6.17;3.20;;;;;;;10.32;65.84;99077.14;2285161;78;21112;-77
2022/05/17 04:04:10;;;;;;;9.30;2.83;;;;;;;10.34;65.88;99089.36;2287245;77;20966;-77
2022/05/17 04:07:11;;;;;;;7.13;3.10;;;;;;;10.44;65.89;99090.42;2286837;78;21067;-77
2022/05/17 04:10:11;;;;;;;11.40;4.03;;;;;;;10.55;66.23;99085.38;2286461;78;21411;-77
2022/05/17 04:13:13;;;;;;;4.27;3.23;;;;;;;10.67;66.05;99081.64;2286799;77;21048;-76
2022/05/17 04:16:12;;;;;;;3.27;2.87;;;;;;;10.76;65.92;99080.48;2287079;78;20997;-77
2022/05/17 04:19:15;;;;;;;175.93;11.80;;;;;;;10.81;65.85;99070.98;2286347;77;21114;-77
2022/05/17 04:22:13;;;;;;;11.47;4.87;;;;;;;10.87;65.76;99074.11;2286810;77;20949;-78
2022/05/17 04:25:13;;;;;;;3.23;2.53;;;;;;;11.01;65.40;99067.34;2284698;78;21445;-78
2022/05/17 04:28:14;;;;;;;29.23;18.07;;;;;;;11.10;64.87;99063.55;2285796;78;20985;-77
2022/05/17 04:31:14;;;;;;;151.43;13.87;;;;;;;11.23;63.83;99058.92;2287974;77;21094;-77
2022/05/17 04:34:14;;;;;;;6.73;3.63;;;;;;;11.37;63.20;99066.97;2287996;77;20926;-77
2022/05/17 04:37:15;;;;;;;6.53;3.33;;;;;;;11.49;62.94;99061.45;2287220;78;20962;-77
2022/05/17 04:40:15;;;;;;;84.90;6.97;;;;;;;11.63;63.04;99064.66;2286317;78;21877;-77
2022/05/17 04:43:16;;;;;;;21.70;3.53;;;;;;;11.73;62.56;99059.53;2285490;77;21025;-76
2022/05/17 04:46:16;;;;;;;3.80;2.70;;;;;;;11.86;62.30;99056.65;2283125;78;21024;-77
2022/05/17 04:49:16;;;;;;;367.43;29.23;;;;;;;11.95;63.05;99058.48;2283101;78;20958;-77
2022/05/17 04:52:17;;;;;;;67.37;8.23;;;;;;;12.02;61.86;99060.29;2284410;78;20953;-77
2022/05/17 04:55:17;;;;;;;11.57;3.12;;;;;;;12.17;61.27;99059.16;2284665;78;21512;-77
2022/05/17 04:58:19;;;;;;;85.60;26.37;;;;;;;12.33;60.73;99061.04;2282948;78;21273;-79
2022/05/17 05:01:19;;;;;;;43.00;26.07;;;;;;;12.51;59.91;99079.94;2283229;78;20949;-80
2022/05/17 05:04:18;;;;;;;8.55;6.92;;;;;;;12.73;59.37;99075.73;2283849;78;20977;-81
2022/05/17 05:07:19;;;;;;;7.97;4.28;;;;;;;12.89;58.76;99079.34;2284164;78;21051;-79
2022/05/17 05:10:19;;;;;;;3.85;3.00;;;;;;;13.04;57.81;99080.34;2284332;78;20938;-80
2022/05/17 05:13:20;;;;;;;23.92;3.60;;;;;;;13.20;57.50;99081.33;2284560;78;21044;-80
2022/05/17 05:16:20;;;;;;;4.33;2.40;;;;;;;13.38;57.42;99084.03;2285118;78;20895;-79
2022/05/17 05:19:20;;;;;;;3.30;2.22;;;;;;;13.54;56.48;99082.34;2286705;78;20982;-79
2022/05/17 05:22:21;;;;;;;15.40;4.08;;;;;;;13.69;56.47;99085.45;2286283;78;21323;-81
2022/05/17 05:25:21;;;;;;;3.40;2.60;;;;;;;13.83;56.12;99081.56;2284706;78;20997;-80
2022/05/17 05:28:22;;;;;;;4.50;2.37;;;;;;;13.98;55.79;99082.94;2284353;78;21024;-79
2022/05/17 05:31:22;;;;;;;6.20;2.27;;;;;;;14.12;55.41;99082.96;2284217;78;21568;-79
2022/05/17 05:34:22;;;;;;;63.00;6.25;;;;;;;14.24;55.32;99081.66;2283282;78;20981;-77
2022/05/17 05:37:23;;;;;;;39.90;3.90;;;;;;;14.35;55.01;99077.30;2282145;78;21429;-76
2022/05/17 05:40:23;;;;;;;5.62;2.30;;;;;;;14.47;55.12;99077.33;2282253;78;20910;-76
2022/05/17 05:43:25;;;;;;;13.98;2.72;;;;;;;14.62;54.70;99080.39;2283280;78;21029;-78
2022/05/17 05:46:24;;;;;;;3.50;2.20;;;;;;;14.79;54.25;99071.20;2282212;78;21965;-77
2022/05/17 05:49:24;;;;;;;10.40;3.02;;;;;;;15.04;54.28;99072.03;2282408;78;20950;-76
2022/05/17 05:52:25;;;;;;;6.25;2.60;;;;;;;15.22;54.29;99070.23;2282759;78;21002;-77
2022/05/17 05:55:25;;;;;;;9.03;2.85;;;;;;;15.39;54.18;99071.92;2281097;78;21416;-77
2022/05/17 05:58:29;;;;;;;16.27;3.10;;;;;;;15.63;53.84;99080.22;2282222;78;20981;-77
2022/05/17 06:01:29;;;;;;;9.03;3.00;;;;;;;15.87;53.02;99084.91;2282384;78;20949;-77
2022/05/17 06:04:35;;;;;;;10.75;2.40;;;;;;;16.14;52.39;99093.08;2282517;78;21040;-77
2022/05/17 06:07:36;;;;;;;11.97;3.12;;;;;;;16.43;51.38;99087.60;2282784;78;21017;-76
2022/05/17 06:10:36;;;;;;;8.95;2.12;;;;;;;16.76;50.89;99084.31;2282353;78;20980;-77
2022/05/17 06:13:37;;;;;;;4.97;1.95;;;;;;;17.12;49.89;99081.76;2280993;78;21029;-78
2022/05/17 06:16:37;;;;;;;32.35;3.67;;;;;;;17.41;49.58;99073.09;2280646;78;21223;-75
2022/05/17 06:19:37;;;;;;;16.90;2.62;;;;;;;17.59;48.68;99073.77;2283239;78;21005;-78
2022/05/17 06:22:38;;;;;;;8.53;2.08;;;;;;;17.72;47.49;99070.98;2281995;78;21532;-78
2022/05/17 06:25:38;;;;;;;43.92;4.65;;;;;;;17.96;46.29;99067.57;2281740;78;20961;-78
2022/05/17 06:28:39;;;;;;;9.93;1.87;;;;;;;18.21;46.04;99070.75;2281568;78;21037;-78
2022/05/17 06:31:41;;;;;;;19.82;3.72;;;;;;;18.54;45.12;99073.31;2259989;78;21017;-74
2022/05/17 06:34:41;;;;;;;85.77;5.95;;;;;;;18.67;44.31;99077.08;2282564;78;21033;-78
2022/05/17 06:37:42;;;;;;;11.10;1.75;;;;;;;18.75;43.72;99067.69;2281273;78;21001;-79
2022/05/17 06:40:42;;;;;;;7.28;2.45;;;;;;;18.92;44.09;99081.48;2281774;78;20973;-77
2022/05/17 06:43:42;;;;;;;12.45;2.00;;;;;;;18.94;42.07;99088.94;2282695;78;21456;-78
2022/05/17 06:46:44;;;;;;;4.35;1.55;;;;;;;19.15;41.47;99085.51;2276238;78;20946;-78
2022/05/17 06:49:43;;;;;;;1.92;1.50;;;;;;;19.26;40.44;99085.72;2275543;78;21041;-78
2022/05/17 06:52:44;;;;;;;18.42;2.45;;;;;;;19.46;41.07;99082.69;2276142;78;21017;-77
2022/05/17 06:55:44;;;;;;;32.38;3.65;;;;;;;19.66;38.71;99089.80;2276937;78;20962;-79
2022/05/17 06:58:45;;;;;;;6.87;1.60;;;;;;;19.62;38.30;99096.52;2275470;78;21021;-78
2022/05/17 07:01:47;;;;;;;5.10;1.52;;;;;;;19.70;38.63;99107.82;2275604;78;20967;-78
2022/05/17 07:04:45;;;;;;;56.75;4.78;;;;;;;19.81;38.55;99107.14;2275547;78;21036;-77
2022/05/17 07:07:46;;;;;;;2.45;1.62;;;;;;;19.97;38.26;99105.06;2275844;78;21045;-78
2022/05/17 07:14:05;;;;;;;2.47;1.57;;;;;;;20.51;37.09;99111.36;2274132;78;20978;-77
2022/05/17 07:17:05;;;;;;;3.80;1.47;;;;;;;20.75;35.35;99112.09;2275155;78;21330;-78
2022/05/17 07:20:06;;;;;;;46.88;4.03;;;;;;;20.86;35.79;99102.56;2274269;78;20990;-77
2022/05/17 07:23:06;;;;;;;5.22;1.52;;;;;;;21.14;36.01;99102.26;2274825;78;21009;-77
2022/05/17 07:26:06;;;;;;;9.58;1.50;;;;;;;21.43;34.87;99105.48;2274924;78;21406;-77
2022/05/17 07:29:07;;;;;;;8.28;1.70;;;;;;;21.69;33.74;99110.08;2273740;78;20945;-78
2022/05/17 07:32:07;;;;;;;8.35;2.02;;;;;;;21.92;33.41;99106.75;2274917;78;20981;-78
2022/05/17 07:35:08;;;;;;;9.03;2.50;;;;;;;21.96;33.31;99112.39;2275691;78;20949;-78
2022/05/17 07:38:08;;;;;;;10.60;2.98;;;;;;;21.86;32.71;99106.48;2274860;78;21084;-77
2022/05/17 07:41:08;;;;;;;8.70;2.30;;;;;;;21.84;32.87;99106.11;2274179;78;21008;-78
2022/05/17 07:44:09;;;;;;;505.35;40.35;;;;;;;21.84;33.22;99103.45;2271555;77;20981;-78
2022/05/17 07:47:09;;;;;;;7.85;2.35;;;;;;;21.97;32.27;99106.61;2256951;78;21299;-78
2022/05/17 07:50:10;;;;;;;9.60;2.30;;;;;;;21.97;32.85;99106.61;2256086;78;21072;-78
2022/05/17 07:53:10;;;;;;;5.15;2.00;;;;;;;22.18;32.53;99109.98;2255196;78;21337;-77
2022/05/17 07:56:10;;;;;;;4.60;2.12;;;;;;;22.15;32.30;99106.95;2257340;78;20958;-77
2022/05/17 07:59:11;;;;;;;9.00;1.98;;;;;;;22.55;32.04;99103.94;2257721;78;21002;-79
2022/05/17 08:02:11;;;;;;;12.10;2.20;;;;;;;22.83;31.09;99099.06;2256121;78;21934;-78
2022/05/17 08:05:12;;;;;;;40.45;4.17;;;;;;;22.86;30.19;99101.16;2256764;78;20987;-77
2022/05/17 08:08:12;;;;;;;7.03;1.67;;;;;;;22.84;30.87;99097.69;2256460;78;21068;-78
2022/05/17 08:11:13;;;;;;;38.63;4.80;;;;;;;22.81;29.46;99103.56;2257521;78;20918;-78
2022/05/17 08:14:13;;;;;;;4.30;1.42;;;;;;;22.84;28.99;99096.35;2258163;79;21421;-78
2022/05/17 08:17:13;;;;;;;3.20;1.82;;;;;;;23.14;29.21;99092.22;2259173;78;21029;-78
2022/05/17 08:20:14;;;;;;;9.78;2.87;;;;;;;23.37;28.59;99090.94;2257716;78;20969;-78
2022/05/17 08:23:14;;;;;;;87.85;7.92;;;;;;;23.69;28.50;99088.95;2260321;78;21356;-79
2022/05/17 08:29:34;;;;;;;6.95;2.17;;;;;;;24.00;29.29;99088.66;2258238;78;21026;-78
2022/05/17 08:35:53;;;;;;;8.80;1.65;;;;;;;23.82;27.11;99087.56;2257710;78;20997;-80
2022/05/17 08:38:57;;;;;;;4.65;1.40;;;;;;;23.78;26.80;99086.81;2258254;78;21040;-79
2022/05/17 08:41:57;;;;;;;4.33;1.37;;;;;;;23.77;27.06;99081.54;2258162;78;20953;-79
2022/05/17 08:44:57;;;;;;;12.13;2.20;;;;;;;23.80;26.87;99082.30;2264486;78;21077;-79
2022/05/17 08:47:58;;;;;;;8.58;1.80;;;;;;;23.90;27.10;99085.47;2282272;78;21024;-81
2022/05/17 08:50:58;;;;;;;13.05;2.85;;;;;;;24.05;27.93;99078.68;2283555;78;21017;-80
2022/05/17 08:53:59;;;;;;;41.37;4.90;;;;;;;24.34;29.02;99073.59;2282643;78;20966;-80
2022/05/17 08:56:59;;;;;;;27.45;3.33;;;;;;;24.62;28.09;99058.18;2283209;78;20907;-80
2022/05/17 08:59:59;;;;;;;31.15;3.80;;;;;;;24.96;27.06;99068.77;2283577;78;21373;-81
2022/05/17 09:03:00;;;;;;;6.80;1.77;;;;;;;25.38;27.82;99064.74;2283438;78;21460;-77
2022/05/17 09:06:03;;;;;;;103.70;9.30;;;;;;;25.78;27.05;99070.51;2281873;78;21261;-77
2022/05/17 09:09:03;;;;;;;3.95;1.37;;;;;;;25.66;25.57;99065.73;2287816;78;20993;-77
2022/05/17 09:12:09;;;;;;;1.60;1.50;;;;;;;25.34;26.29;99068.02;2280934;78;20953;-77
2022/05/17 09:15:11;;;;;;;12.68;2.02;;;;;;;25.23;26.47;99067.62;2260317;78;20985;-77
2022/05/17 09:18:12;;;;;;;6.12;1.67;;;;;;;25.33;27.11;99066.28;2282250;78;21256;-77
2022/05/17 09:21:12;;;;;;;3.95;1.70;;;;;;;25.28;26.55;99066.95;2281785;78;21389;-77
2022/05/17 09:24:13;;;;;;;3.08;1.52;;;;;;;25.01;27.05;99065.46;2282350;78;21370;-78
2022/05/17 09:27:13;;;;;;;3.27;1.55;;;;;;;25.03;26.79;99068.94;2281618;78;20977;-77
2022/05/17 09:30:13;;;;;;;4.03;1.25;;;;;;;24.99;26.15;99072.20;2282616;78;21029;-78
2022/05/17 09:33:15;;;;;;;3.30;1.70;;;;;;;24.77;25.82;99072.69;2282017;78;20944;-79
2022/05/17 09:36:14;;;;;;;3.62;1.20;;;;;;;24.62;25.65;99073.33;2280487;78;21604;-78
2022/05/17 09:39:14;;;;;;;2.92;1.50;;;;;;;24.56;26.07;99073.11;2279376;78;20954;-77
2022/05/17 09:42:15;;;;;;;3.83;1.37;;;;;;;24.65;26.29;99070.53;2279678;78;21360;-77
2022/05/17 09:45:15;;;;;;;9.75;1.55;;;;;;;24.51;25.30;99071.57;2277342;78;20986;-78
2022/05/17 09:48:16;;;;;;;7.22;1.62;;;;;;;24.45;26.10;99070.02;2272335;78;21088;-78
2022/05/17 09:54:35;;;;;;;4.72;1.60;;;;;;;24.27;25.67;99074.27;2276255;78;21916;-78
2022/05/17 09:57:36;;;;;;;3.40;1.40;;;;;;;24.00;25.76;99077.53;2275530;78;20978;-77
2022/05/17 10:00:40;;;;;;;1.72;1.32;;;;;;;23.95;25.45;99078.63;2274780;78;21005;-76
2022/05/17 10:03:36;;;;;;;3.27;1.22;;;;;;;23.89;25.67;99077.08;2273291;78;21594;-78
2022/05/17 10:06:37;;;;;;;4.00;1.50;;;;;;;23.98;26.51;99076.72;2273168;78;21406;-77
2022/05/17 10:09:37;;;;;;;5.45;1.50;;;;;;;24.00;25.71;99077.53;2274155;78;20973;-76
2022/05/17 10:12:37;;;;;;;3.77;1.57;;;;;;;23.88;25.87;99072.67;2274525;78;21435;-77
2022/05/17 10:15:38;;;;;;;2.37;1.40;;;;;;;23.70;25.47;99082.23;2275159;78;21010;-79
2022/05/17 10:18:38;;;;;;;1.60;1.40;;;;;;;23.29;25.47;99081.48;2273939;78;20981;-77
2022/05/17 10:21:39;;;;;;;2.00;1.50;;;;;;;23.03;26.60;99085.94;2275222;78;21587;-77
2022/05/17 10:24:39;;;;;;;5.12;1.50;;;;;;;23.17;27.08;99088.98;2275886;78;21096;-77
2022/05/17 10:27:39;;;;;;;20.30;2.72;;;;;;;23.41;26.70;99081.08;2274441;78;20974;-80
2022/05/17 10:30:42;;;;;;;1.65;1.45;;;;;;;23.38;27.60;99083.36;2276543;78;21022;-77
2022/05/17 10:33:44;;;;;;;6.67;1.72;;;;;;;23.13;26.01;99094.48;2274934;78;20966;-78
2022/05/17 10:36:43;;;;;;;2.98;1.52;;;;;;;22.88;27.01;99084.68;2273095;78;22097;-77
2022/05/17 10:39:44;;;;;;;4.65;1.85;;;;;;;22.98;27.91;99087.89;2274248;78;21010;-79
2022/05/17 10:42:44;;;;;;;7.37;1.98;;;;;;;23.19;27.37;99087.60;2276776;78;21322;-76
2022/05/17 10:45:44;;;;;;;6.35;1.95;;;;;;;23.02;27.25;99093.98;2279220;78;21097;-77
2022/05/17 10:48:45;;;;;;;3.25;2.25;;;;;;;22.84;27.89;99095.48;2285843;77;20946;-77
2022/05/17 10:51:45;;;;;;;3.55;1.77;;;;;;;22.81;28.25;99100.45;2285389;77;21032;-77
2022/05/17 10:54:46;;;;;;;9.00;2.25;;;;;;;22.75;28.34;99102.41;2284812;78;21399;-76
2022/05/17 10:57:46;;;;;;;6.50;2.45;;;;;;;22.78;28.16;99105.84;2283944;78;20989;-77
2022/05/17 11:00:47;;;;;;;15.53;2.70;;;;;;;22.82;28.21;99097.33;2284335;77;20953;-77
2022/05/17 11:03:47;;;;;;;9.80;2.70;;;;;;;22.79;28.37;99102.72;2284531;78;21061;-76
2022/05/17 11:06:49;;;;;;;6.10;2.10;;;;;;;22.78;28.77;99097.86;2252247;78;21029;-76
2022/05/17 11:09:49;;;;;;;2.95;1.60;;;;;;;22.78;28.27;99095.66;2286128;77;21272;-76
2022/05/17 11:12:50;;;;;;;3.62;1.82;;;;;;;22.76;28.42;99102.36;2287041;78;20958;-77
2022/05/17 11:15:50;;;;;;;4.90;1.92;;;;;;;22.88;28.50;99097.12;2286226;77;20966;-76
2022/05/17 11:18:51;;;;;;;6.97;2.20;;;;;;;22.86;28.09;99092.31;2286026;77;20996;-78
2022/05/17 11:21:52;;;;;;;15.03;2.83;;;;;;;22.86;28.10;99086.52;2284500;77;21908;-77
2022/05/17 11:24:52;;;;;;;3.47;1.90;;;;;;;22.65;27.99;99088.55;2284042;77;21100;-77
2022/05/17 11:27:52;;;;;;;4.55;2.10;;;;;;;22.72;28.11;99095.40;2284387;78;20985;-77
2022/05/17 11:30:52;;;;;;;2.67;1.80;;;;;;;22.77;28.29;99097.45;2284559;78;21950;-77
2022/05/17 11:33:53;;;;;;;3.05;2.00;;;;;;;22.94;27.67;99093.37;2284299;78;21032;-77
2022/05/17 11:36:53;;;;;;;2.33;1.70;;;;;;;22.96;27.84;99091.53;2284732;78;21013;-77
2022/05/17 11:39:53;;;;;;;266.57;22.82;;;;;;;22.96;27.95;99093.73;2285452;77;21126;-75
2022/05/17 11:46:13;;;;;;;2.10;1.60;;;;;;;23.12;28.28;99095.40;2284493;77;21075;-77
2022/05/17 11:49:13;;;;;;;2.83;1.70;;;;;;;23.08;28.20;99091.98;2284953;77;20981;-78
2022/05/17 11:52:13;;;;;;;4.62;1.80;;;;;;;22.81;28.21;99089.80;2284375;78;21333;-76
2022/05/17 11:55:14;;;;;;;1.70;1.60;;;;;;;22.69;28.13;99096.83;2285760;77;21057;-76
2022/05/17 11:58:14;;;;;;;2.10;1.72;;;;;;;22.75;28.37;99094.43;2285200;78;20993;-79
2022/05/17 12:01:15;;;;;;;4.03;1.82;;;;;;;22.67;27.97;99090.69;2285523;78;21004;-78
2022/05/17 12:04:19;;;;;;;2.87;1.65;;;;;;;22.56;28.50;99091.05;2284539;78;20985;-78
2022/05/17 12:07:17;;;;;;;3.05;1.90;;;;;;;22.58;28.14;99097.64;2249994;78;21043;-81
2022/05/17 12:10:18;;;;;;;2.90;1.55;;;;;;;22.62;27.91;99093.97;2285658;77;21412;-80
2022/05/17 12:13:19;;;;;;;4.90;1.72;;;;;;;22.71;27.89;99094.13;2285532;77;20958;-79
2022/05/17 12:16:19;;;;;;;2.00;1.32;;;;;;;22.71;28.08;99091.45;2285300;77;20985;-79
2022/05/17 12:19:19;;;;;;;3.85;1.65;;;;;;;22.80;28.27;99087.19;2285250;77;20970;-78
2022/05/17 12:22:19;;;;;;;10.35;2.80;;;;;;;22.86;27.89;99085.66;2285502;77;20949;-80
2022/05/17 12:25:20;;;;;;;1.70;1.60;;;;;;;22.64;27.74;99097.45;2285588;77;21038;-80
2022/05/17 12:28:20;;;;;;;4.83;1.80;;;;;;;22.44;27.78;99099.85;2285624;77;21185;-78
2022/05/17 12:31:21;;;;;;;7.55;1.90;;;;;;;22.42;28.30;99097.70;2284138;78;20996;-77
2022/05/17 12:34:21;;;;;;;4.03;1.75;;;;;;;22.52;28.17;99088.50;2285610;77;20985;-81
2022/05/17 12:37:21;;;;;;;16.85;2.90;;;;;;;22.65;28.19;99090.33;2286393;77;20990;-78
2022/05/17 12:43:41;;;;;;;5.25;1.92;;;;;;;22.47;28.82;99093.10;2286575;77;21017;-79
2022/05/17 12:46:41;;;;;;;5.33;1.62;;;;;;;22.25;29.12;99089.80;2284283;76;20985;-81
2022/05/17 12:49:42;;;;;;;3.98;1.60;;;;;;;21.97;28.62;99096.85;2283191;78;20927;-79
2022/05/17 12:52:43;;;;;;;2.67;1.40;;;;;;;21.71;29.01;99084.80;2280232;78;20957;-77
2022/05/17 12:55:44;;;;;;;1.50;1.37;;;;;;;21.68;29.62;99090.20;2280381;78;20972;-79
2022/05/17 12:58:45;;;;;;;7.30;1.55;;;;;;;21.54;29.82;99084.80;2280821;78;20988;-78
2022/05/17 13:01:43;;;;;;;4.53;1.70;;;;;;;21.41;29.60;99088.72;2280598;78;20907;-78
2022/05/17 13:04:44;;;;;;;2.05;1.67;;;;;;;21.49;29.79;99085.39;2280878;78;21972;-78
2022/05/17 13:07:44;;;;;;;3.55;1.70;;;;;;;21.61;29.62;99081.05;2281796;78;21092;-80
2022/05/17 13:10:44;;;;;;;2.72;2.10;;;;;;;21.72;29.19;99078.57;2282988;78;20993;-79
2022/05/17 13:13:46;;;;;;;14.18;2.87;;;;;;;21.77;29.56;99084.16;2283588;78;20978;-79
2022/05/17 13:16:45;;;;;;;3.95;1.85;;;;;;;21.78;29.30;99078.39;2282612;78;21537;-77
2022/05/17 13:19:46;;;;;;;1.90;1.72;;;;;;;21.84;29.21;99082.19;2281208;78;20954;-78
2022/05/17 13:22:48;;;;;;;4.37;1.82;;;;;;;22.11;29.45;99075.20;2282061;78;20949;-79
2022/05/17 13:25:46;;;;;;;3.98;2.30;;;;;;;22.25;29.18;99077.84;2283525;78;20964;-79
2022/05/17 13:28:47;;;;;;;2.62;2.02;;;;;;;22.13;29.52;99080.01;2282882;78;20957;-79
2022/05/17 13:31:47;;;;;;;2.40;1.67;;;;;;;22.22;29.32;99088.56;2283240;78;20949;-78
2022/05/17 13:34:48;;;;;;;2.70;1.60;;;;;;;22.20;29.14;99081.09;2282574;78;20993;-79
2022/05/17 13:37:48;;;;;;;9.40;1.85;;;;;;;22.15;29.21;99088.80;2283221;78;21092;-78
2022/05/17 13:40:49;;;;;;;6.87;2.10;;;;;;;22.00;29.69;99082.14;2283947;78;20977;-80
2022/05/17 13:43:49;;;;;;;4.45;1.55;;;;;;;21.84;29.93;99090.16;2283732;78;21048;-78
2022/05/17 13:46:50;;;;;;;3.35;1.70;;;;;;;21.75;29.95;99076.70;2283704;78;20962;-80
2022/05/17 13:49:50;;;;;;;3.02;1.95;;;;;;;21.76;30.70;99089.52;2285018;78;20977;-79
2022/05/17 13:52:50;;;;;;;2.87;1.62;;;;;;;21.90;30.36;99086.00;2285169;78;20942;-79
2022/05/17 13:55:50;;;;;;;3.02;1.40;;;;;;;21.89;30.72;99089.57;2285520;78;20887;-78
2022/05/17 13:58:51;;;;;;;38.63;4.08;;;;;;;21.89;30.85;99097.08;2285444;78;20949;-77
2022/05/17 14:01:51;;;;;;;6.55;1.85;;;;;;;21.72;30.18;99104.68;2283361;78;20906;-78
2022/05/17 14:04:52;;;;;;;5.72;1.50;;;;;;;21.56;29.97;99096.25;2283632;78;20997;-80
2022/05/17 14:07:52;;;;;;;5.45;2.20;;;;;;;21.62;30.69;99092.55;2283700;78;21464;-79
2022/05/17 14:14:11;;;;;;;2.83;1.50;;;;;;;21.81;30.62;99092.45;2285409;78;21059;-76
2022/05/17 14:17:12;;;;;;;5.05;1.60;;;;;;;21.80;29.69;99089.84;2284275;78;20981;-81
2022/05/17 14:20:12;;;;;;;1.85;1.25;;;;;;;21.46;29.07;99093.44;2283984;78;20985;-80
2022/05/17 14:23:12;;;;;;;1.95;1.30;;;;;;;21.39;29.61;99088.34;2284052;78;21033;-81
2022/05/17 14:26:13;;;;;;;4.80;1.30;;;;;;;21.37;29.42;99094.16;2283973;78;21065;-80
2022/05/17 14:29:13;;;;;;;4.33;1.50;;;;;;;21.32;29.31;99090.30;2284423;78;21438;-82